sensor_id;sensor_type;location;lat;lon;timestamp;temperature;humidity
8910;DHT22;4490;49.072;8.804;2023-07-29T00:01:20;18.60;99.90
8910;DHT22;4490;49.072;8.804;2023-07-29T00:03:46;18.60;99.90
8910;DHT22;4490;49.072;8.804;2023-07-29T00:06:11;18.60;99.90
8910;DHT22;4490;49.072;8.804;2023-07-29T00:08:37;18.60;99.90
8910;DHT22;4490;49.072;8.804;2023-07-29T00:11:02;18.60;99.90
8910;DHT22;4490;49.072;8.804;2023-07-29T00:13:28;18.60;99.90
8910;DHT22;4490;49.072;8.804;2023-07-29T00:15:55;18.70;99.90
8910;DHT22;4490;49.072;8.804;2023-07-29T00:18:22;18.70;99.90
8910;DHT22;4490;49.072;8.804;2023-07-29T00:20:48;18.70;99.90
8910;DHT22;4490;49.072;8.804;2023-07-29T00:23:13;18.70;99.90
8910;DHT22;4490;49.072;8.804;2023-07-29T00:25:39;18.70;99.90
8910;DHT22;4490;49.072;8.804;2023-07-29T00:28:04;18.70;99.90
8910;DHT22;4490;49.072;8.804;2023-07-29T00:30:30;18.70;99.90
8910;DHT22;4490;49.072;8.804;2023-07-29T00:32:56;18.70;99.90
8910;DHT22;4490;49.072;8.804;2023-07-29T00:35:21;18.70;99.90
8910;DHT22;4490;49.072;8.804;2023-07-29T00:37:47;18.70;99.90
8910;DHT22;4490;49.072;8.804;2023-07-29T00:40:21;18.70;99.90
8910;DHT22;4490;49.072;8.804;2023-07-29T00:42:47;18.70;99.90
8910;DHT22;4490;49.072;8.804;2023-07-29T00:45:13;18.70;99.90
8910;DHT22;4490;49.072;8.804;2023-07-29T00:47:39;18.80;99.90
8910;DHT22;4490;49.072;8.804;2023-07-29T00:50:07;18.80;99.90
8910;DHT22;4490;49.072;8.804;2023-07-29T00:52:34;18.80;99.90
8910;DHT22;4490;49.072;8.804;2023-07-29T00:54:59;18.80;99.90
8910;DHT22;4490;49.072;8.804;2023-07-29T00:57:25;18.80;99.90
8910;DHT22;4490;49.072;8.804;2023-07-29T00:59:52;18.70;99.90
8910;DHT22;4490;49.072;8.804;2023-07-29T01:02:17;18.80;99.90
8910;DHT22;4490;49.072;8.804;2023-07-29T01:04:43;18.80;99.90
8910;DHT22;4490;49.072;8.804;2023-07-29T01:07:14;18.80;99.90
8910;DHT22;4490;49.072;8.804;2023-07-29T01:10:03;18.80;99.90
8910;DHT22;4490;49.072;8.804;2023-07-29T01:12:42;18.80;99.90
8910;DHT22;4490;49.072;8.804;2023-07-29T01:15:19;18.80;99.90
8910;DHT22;4490;49.072;8.804;2023-07-29T01:18:03;18.80;99.90
8910;DHT22;4490;49.072;8.804;2023-07-29T01:20:33;18.80;99.90
8910;DHT22;4490;49.072;8.804;2023-07-29T01:22:59;18.80;99.90
8910;DHT22;4490;49.072;8.804;2023-07-29T01:25:25;18.80;99.90
8910;DHT22;4490;49.072;8.804;2023-07-29T01:27:52;18.70;99.90
8910;DHT22;4490;49.072;8.804;2023-07-29T01:30:19;18.70;99.90
8910;DHT22;4490;49.072;8.804;2023-07-29T01:33:18;18.70;99.90
8910;DHT22;4490;49.072;8.804;2023-07-29T01:35:48;18.80;99.90
8910;DHT22;4490;49.072;8.804;2023-07-29T01:38:22;18.70;99.90
8910;DHT22;4490;49.072;8.804;2023-07-29T01:40:50;18.70;99.90
8910;DHT22;4490;49.072;8.804;2023-07-29T01:43:17;18.70;99.90
8910;DHT22;4490;49.072;8.804;2023-07-29T01:45:44;18.70;99.90
8910;DHT22;4490;49.072;8.804;2023-07-29T01:48:10;18.70;99.90
8910;DHT22;4490;49.072;8.804;2023-07-29T01:50:35;18.70;99.90
8910;DHT22;4490;49.072;8.804;2023-07-29T01:53:01;18.70;99.90
8910;DHT22;4490;49.072;8.804;2023-07-29T01:55:27;18.60;99.90
8910;DHT22;4490;49.072;8.804;2023-07-29T01:57:52;18.60;99.90
8910;DHT22;4490;49.072;8.804;2023-07-29T02:00:19;18.60;99.90
8910;DHT22;4490;49.072;8.804;2023-07-29T02:02:45;18.60;99.90
8910;DHT22;4490;49.072;8.804;2023-07-29T02:05:10;18.60;99.90
8910;DHT22;4490;49.072;8.804;2023-07-29T02:07:36;18.50;99.90
8910;DHT22;4490;49.072;8.804;2023-07-29T02:10:01;18.50;99.90
8910;DHT22;4490;49.072;8.804;2023-07-29T02:12:27;18.50;99.90
8910;DHT22;4490;49.072;8.804;2023-07-29T02:14:53;18.50;99.90
8910;DHT22;4490;49.072;8.804;2023-07-29T02:17:18;18.40;99.90
8910;DHT22;4490;49.072;8.804;2023-07-29T02:19:44;18.40;99.90
8910;DHT22;4490;49.072;8.804;2023-07-29T02:22:14;18.40;99.90
8910;DHT22;4490;49.072;8.804;2023-07-29T02:24:40;18.40;99.90
8910;DHT22;4490;49.072;8.804;2023-07-29T02:27:06;18.40;99.90
8910;DHT22;4490;49.072;8.804;2023-07-29T02:29:32;18.40;99.90
8910;DHT22;4490;49.072;8.804;2023-07-29T02:31:59;18.40;99.90
8910;DHT22;4490;49.072;8.804;2023-07-29T02:34:24;18.40;99.90
8910;DHT22;4490;49.072;8.804;2023-07-29T02:36:50;18.40;99.90
8910;DHT22;4490;49.072;8.804;2023-07-29T02:39:16;18.40;99.90
8910;DHT22;4490;49.072;8.804;2023-07-29T02:41:41;18.40;99.90
8910;DHT22;4490;49.072;8.804;2023-07-29T02:44:07;18.50;99.90
8910;DHT22;4490;49.072;8.804;2023-07-29T02:46:32;18.50;99.90
8910;DHT22;4490;49.072;8.804;2023-07-29T02:48:58;18.50;99.90
8910;DHT22;4490;49.072;8.804;2023-07-29T02:51:24;18.50;99.90
8910;DHT22;4490;49.072;8.804;2023-07-29T02:53:50;18.50;99.90
8910;DHT22;4490;49.072;8.804;2023-07-29T02:56:16;18.50;99.90
8910;DHT22;4490;49.072;8.804;2023-07-29T02:58:41;18.50;99.90
8910;DHT22;4490;49.072;8.804;2023-07-29T03:01:08;18.60;99.90
8910;DHT22;4490;49.072;8.804;2023-07-29T03:03:34;18.60;99.90
8910;DHT22;4490;49.072;8.804;2023-07-29T03:06:07;18.60;99.90
8910;DHT22;4490;49.072;8.804;2023-07-29T03:08:33;18.60;99.90
8910;DHT22;4490;49.072;8.804;2023-07-29T03:11:12;18.60;99.90
8910;DHT22;4490;49.072;8.804;2023-07-29T03:13:38;18.70;99.90
8910;DHT22;4490;49.072;8.804;2023-07-29T03:16:14;18.70;99.90
8910;DHT22;4490;49.072;8.804;2023-07-29T03:18:41;18.70;99.90
8910;DHT22;4490;49.072;8.804;2023-07-29T03:21:07;18.70;99.90
8910;DHT22;4490;49.072;8.804;2023-07-29T03:23:34;18.70;99.90
8910;DHT22;4490;49.072;8.804;2023-07-29T03:26:00;18.70;99.90
8910;DHT22;4490;49.072;8.804;2023-07-29T03:28:28;18.70;99.90
8910;DHT22;4490;49.072;8.804;2023-07-29T03:30:54;18.70;99.90
8910;DHT22;4490;49.072;8.804;2023-07-29T03:33:20;18.70;99.90
8910;DHT22;4490;49.072;8.804;2023-07-29T03:35:46;18.70;99.90
8910;DHT22;4490;49.072;8.804;2023-07-29T03:38:12;18.70;99.90
8910;DHT22;4490;49.072;8.804;2023-07-29T03:40:38;18.70;99.90
8910;DHT22;4490;49.072;8.804;2023-07-29T03:43:04;18.70;99.90
8910;DHT22;4490;49.072;8.804;2023-07-29T03:45:30;18.70;99.90
8910;DHT22;4490;49.072;8.804;2023-07-29T03:47:55;18.70;99.90
8910;DHT22;4490;49.072;8.804;2023-07-29T03:50:21;18.70;99.90
8910;DHT22;4490;49.072;8.804;2023-07-29T03:52:47;18.70;99.90
8910;DHT22;4490;49.072;8.804;2023-07-29T03:55:13;18.70;99.90
8910;DHT22;4490;49.072;8.804;2023-07-29T03:57:38;18.70;99.90
8910;DHT22;4490;49.072;8.804;2023-07-29T04:00:04;18.70;99.90
8910;DHT22;4490;49.072;8.804;2023-07-29T04:02:31;18.70;99.90
8910;DHT22;4490;49.072;8.804;2023-07-29T04:04:56;18.60;99.90
8910;DHT22;4490;49.072;8.804;2023-07-29T04:07:22;18.60;99.90
8910;DHT22;4490;49.072;8.804;2023-07-29T04:09:48;18.60;99.90
8910;DHT22;4490;49.072;8.804;2023-07-29T04:12:14;18.60;99.90
8910;DHT22;4490;49.072;8.804;2023-07-29T04:14:40;18.60;99.90
8910;DHT22;4490;49.072;8.804;2023-07-29T04:17:06;18.70;99.90
8910;DHT22;4490;49.072;8.804;2023-07-29T04:19:32;18.70;99.90
8910;DHT22;4490;49.072;8.804;2023-07-29T04:21:57;18.70;99.90
8910;DHT22;4490;49.072;8.804;2023-07-29T04:24:23;18.70;99.90
8910;DHT22;4490;49.072;8.804;2023-07-29T04:26:49;18.70;99.90
8910;DHT22;4490;49.072;8.804;2023-07-29T04:29:14;18.70;99.90
8910;DHT22;4490;49.072;8.804;2023-07-29T04:31:40;18.70;99.90
8910;DHT22;4490;49.072;8.804;2023-07-29T04:34:06;18.80;99.90
8910;DHT22;4490;49.072;8.804;2023-07-29T04:36:31;18.80;99.90
8910;DHT22;4490;49.072;8.804;2023-07-29T04:38:57;18.80;99.90
8910;DHT22;4490;49.072;8.804;2023-07-29T04:41:23;18.80;99.90
8910;DHT22;4490;49.072;8.804;2023-07-29T04:43:48;18.80;99.90
8910;DHT22;4490;49.072;8.804;2023-07-29T04:46:15;18.80;99.90
8910;DHT22;4490;49.072;8.804;2023-07-29T04:48:41;18.80;99.90
8910;DHT22;4490;49.072;8.804;2023-07-29T04:51:06;18.80;99.90
8910;DHT22;4490;49.072;8.804;2023-07-29T04:53:32;18.90;99.90
8910;DHT22;4490;49.072;8.804;2023-07-29T04:55:58;18.80;99.90
8910;DHT22;4490;49.072;8.804;2023-07-29T04:58:23;18.90;99.90
8910;DHT22;4490;49.072;8.804;2023-07-29T05:00:49;18.90;99.90
8910;DHT22;4490;49.072;8.804;2023-07-29T05:03:15;18.90;99.90
8910;DHT22;4490;49.072;8.804;2023-07-29T05:05:40;18.90;99.90
8910;DHT22;4490;49.072;8.804;2023-07-29T05:08:06;18.90;99.90
8910;DHT22;4490;49.072;8.804;2023-07-29T05:10:31;19.00;99.90
8910;DHT22;4490;49.072;8.804;2023-07-29T05:12:57;18.90;99.90
8910;DHT22;4490;49.072;8.804;2023-07-29T05:15:22;19.00;99.90
8910;DHT22;4490;49.072;8.804;2023-07-29T05:17:48;19.00;99.90
8910;DHT22;4490;49.072;8.804;2023-07-29T05:20:14;18.90;99.90
8910;DHT22;4490;49.072;8.804;2023-07-29T05:22:39;19.00;99.90
8910;DHT22;4490;49.072;8.804;2023-07-29T05:25:05;19.00;99.90
8910;DHT22;4490;49.072;8.804;2023-07-29T05:27:31;19.10;99.90
8910;DHT22;4490;49.072;8.804;2023-07-29T05:29:57;19.10;99.90
8910;DHT22;4490;49.072;8.804;2023-07-29T05:32:22;19.10;99.90
8910;DHT22;4490;49.072;8.804;2023-07-29T05:34:48;19.10;99.90
8910;DHT22;4490;49.072;8.804;2023-07-29T05:37:14;19.20;99.90
8910;DHT22;4490;49.072;8.804;2023-07-29T05:39:39;19.20;99.90
8910;DHT22;4490;49.072;8.804;2023-07-29T05:42:05;19.20;99.90
8910;DHT22;4490;49.072;8.804;2023-07-29T05:44:31;19.30;99.90
8910;DHT22;4490;49.072;8.804;2023-07-29T05:46:57;19.30;99.90
8910;DHT22;4490;49.072;8.804;2023-07-29T05:49:23;19.30;99.90
8910;DHT22;4490;49.072;8.804;2023-07-29T05:51:48;19.40;99.90
8910;DHT22;4490;49.072;8.804;2023-07-29T05:54:17;19.40;99.90
8910;DHT22;4490;49.072;8.804;2023-07-29T05:56:43;19.40;99.90
8910;DHT22;4490;49.072;8.804;2023-07-29T05:59:08;19.50;99.90
8910;DHT22;4490;49.072;8.804;2023-07-29T06:01:34;19.50;99.90
8910;DHT22;4490;49.072;8.804;2023-07-29T06:04:00;19.50;99.90
8910;DHT22;4490;49.072;8.804;2023-07-29T06:06:26;19.60;99.90
8910;DHT22;4490;49.072;8.804;2023-07-29T06:08:52;19.60;99.90
8910;DHT22;4490;49.072;8.804;2023-07-29T06:11:17;19.60;99.90
8910;DHT22;4490;49.072;8.804;2023-07-29T06:13:43;19.60;99.90
8910;DHT22;4490;49.072;8.804;2023-07-29T06:16:09;19.70;99.90
8910;DHT22;4490;49.072;8.804;2023-07-29T06:18:34;19.70;99.90
8910;DHT22;4490;49.072;8.804;2023-07-29T06:21:00;19.70;99.90
8910;DHT22;4490;49.072;8.804;2023-07-29T06:23:25;19.80;99.90
8910;DHT22;4490;49.072;8.804;2023-07-29T06:25:51;19.80;99.90
8910;DHT22;4490;49.072;8.804;2023-07-29T06:28:17;19.90;99.90
8910;DHT22;4490;49.072;8.804;2023-07-29T06:30:42;19.90;99.90
8910;DHT22;4490;49.072;8.804;2023-07-29T06:33:08;20.00;99.90
8910;DHT22;4490;49.072;8.804;2023-07-29T06:35:34;20.00;99.90
8910;DHT22;4490;49.072;8.804;2023-07-29T06:38:00;20.10;99.90
8910;DHT22;4490;49.072;8.804;2023-07-29T06:40:25;20.10;99.90
8910;DHT22;4490;49.072;8.804;2023-07-29T06:42:51;20.10;99.90
8910;DHT22;4490;49.072;8.804;2023-07-29T06:45:17;20.10;99.90
8910;DHT22;4490;49.072;8.804;2023-07-29T06:47:42;20.20;99.90
8910;DHT22;4490;49.072;8.804;2023-07-29T06:50:08;20.20;99.90
8910;DHT22;4490;49.072;8.804;2023-07-29T06:52:34;20.20;99.90
8910;DHT22;4490;49.072;8.804;2023-07-29T06:55:00;20.20;99.90
8910;DHT22;4490;49.072;8.804;2023-07-29T06:57:25;20.20;99.90
8910;DHT22;4490;49.072;8.804;2023-07-29T06:59:51;20.20;99.90
8910;DHT22;4490;49.072;8.804;2023-07-29T07:02:16;20.20;99.90
8910;DHT22;4490;49.072;8.804;2023-07-29T07:04:42;20.30;99.90
8910;DHT22;4490;49.072;8.804;2023-07-29T07:07:07;20.30;99.90
8910;DHT22;4490;49.072;8.804;2023-07-29T07:09:33;20.30;99.90
8910;DHT22;4490;49.072;8.804;2023-07-29T07:11:59;20.30;99.90
8910;DHT22;4490;49.072;8.804;2023-07-29T07:14:24;20.30;99.90
8910;DHT22;4490;49.072;8.804;2023-07-29T07:16:51;20.30;99.90
8910;DHT22;4490;49.072;8.804;2023-07-29T07:19:16;20.30;99.90
8910;DHT22;4490;49.072;8.804;2023-07-29T07:21:42;20.40;99.90
8910;DHT22;4490;49.072;8.804;2023-07-29T07:24:07;20.40;99.90
8910;DHT22;4490;49.072;8.804;2023-07-29T07:26:33;20.40;99.90
8910;DHT22;4490;49.072;8.804;2023-07-29T07:28:58;20.40;99.90
8910;DHT22;4490;49.072;8.804;2023-07-29T07:31:24;20.40;99.90
8910;DHT22;4490;49.072;8.804;2023-07-29T07:33:50;20.50;99.90
8910;DHT22;4490;49.072;8.804;2023-07-29T07:36:15;20.50;99.90
8910;DHT22;4490;49.072;8.804;2023-07-29T07:38:41;20.50;99.90
8910;DHT22;4490;49.072;8.804;2023-07-29T07:41:07;20.50;99.90
8910;DHT22;4490;49.072;8.804;2023-07-29T07:43:32;20.60;99.90
8910;DHT22;4490;49.072;8.804;2023-07-29T07:45:59;20.70;99.90
8910;DHT22;4490;49.072;8.804;2023-07-29T07:48:26;20.80;99.90
8910;DHT22;4490;49.072;8.804;2023-07-29T07:50:51;20.90;99.90
8910;DHT22;4490;49.072;8.804;2023-07-29T07:53:17;21.00;99.90
8910;DHT22;4490;49.072;8.804;2023-07-29T07:55:42;21.20;99.90
8910;DHT22;4490;49.072;8.804;2023-07-29T07:58:14;21.30;99.90
8910;DHT22;4490;49.072;8.804;2023-07-29T08:00:40;21.50;99.90
8910;DHT22;4490;49.072;8.804;2023-07-29T08:03:05;21.50;99.90
8910;DHT22;4490;49.072;8.804;2023-07-29T08:05:31;21.60;99.90
8910;DHT22;4490;49.072;8.804;2023-07-29T08:07:57;21.70;99.90
8910;DHT22;4490;49.072;8.804;2023-07-29T08:10:23;21.80;99.90
8910;DHT22;4490;49.072;8.804;2023-07-29T08:12:48;21.90;99.90
8910;DHT22;4490;49.072;8.804;2023-07-29T08:15:14;21.90;99.90
8910;DHT22;4490;49.072;8.804;2023-07-29T08:17:40;22.00;99.90
8910;DHT22;4490;49.072;8.804;2023-07-29T08:20:06;22.00;99.90
8910;DHT22;4490;49.072;8.804;2023-07-29T08:22:32;22.00;99.90
8910;DHT22;4490;49.072;8.804;2023-07-29T08:24:58;22.10;99.90
8910;DHT22;4490;49.072;8.804;2023-07-29T08:27:24;22.10;99.90
8910;DHT22;4490;49.072;8.804;2023-07-29T08:29:49;22.10;99.90
8910;DHT22;4490;49.072;8.804;2023-07-29T08:32:15;22.20;99.90
8910;DHT22;4490;49.072;8.804;2023-07-29T08:34:41;22.20;99.90
8910;DHT22;4490;49.072;8.804;2023-07-29T08:37:06;22.20;99.90
8910;DHT22;4490;49.072;8.804;2023-07-29T08:39:32;22.20;99.90
8910;DHT22;4490;49.072;8.804;2023-07-29T08:42:02;22.20;99.90
8910;DHT22;4490;49.072;8.804;2023-07-29T08:44:35;22.20;99.90
8910;DHT22;4490;49.072;8.804;2023-07-29T08:47:02;22.20;99.90
8910;DHT22;4490;49.072;8.804;2023-07-29T08:49:28;22.30;99.90
8910;DHT22;4490;49.072;8.804;2023-07-29T08:51:57;22.30;99.90
8910;DHT22;4490;49.072;8.804;2023-07-29T08:54:23;22.40;99.90
8910;DHT22;4490;49.072;8.804;2023-07-29T08:56:49;22.40;99.90
8910;DHT22;4490;49.072;8.804;2023-07-29T08:59:15;22.30;99.90
8910;DHT22;4490;49.072;8.804;2023-07-29T09:01:42;22.30;99.90
8910;DHT22;4490;49.072;8.804;2023-07-29T09:04:09;22.20;99.90
8910;DHT22;4490;49.072;8.804;2023-07-29T09:06:35;22.20;99.90
8910;DHT22;4490;49.072;8.804;2023-07-29T09:09:03;22.20;99.90
8910;DHT22;4490;49.072;8.804;2023-07-29T09:11:29;22.20;99.90
8910;DHT22;4490;49.072;8.804;2023-07-29T09:13:55;22.20;99.90
8910;DHT22;4490;49.072;8.804;2023-07-29T09:16:21;22.20;99.90
8910;DHT22;4490;49.072;8.804;2023-07-29T09:18:51;22.20;99.90
8910;DHT22;4490;49.072;8.804;2023-07-29T09:21:24;22.20;99.90
8910;DHT22;4490;49.072;8.804;2023-07-29T09:23:54;22.20;99.90
8910;DHT22;4490;49.072;8.804;2023-07-29T09:26:25;22.10;99.90
8910;DHT22;4490;49.072;8.804;2023-07-29T09:28:56;22.00;99.90
8910;DHT22;4490;49.072;8.804;2023-07-29T09:31:24;22.00;99.90
8910;DHT22;4490;49.072;8.804;2023-07-29T09:33:53;21.90;99.90
8910;DHT22;4490;49.072;8.804;2023-07-29T09:36:21;21.80;99.90
8910;DHT22;4490;49.072;8.804;2023-07-29T09:38:47;21.80;99.90
8910;DHT22;4490;49.072;8.804;2023-07-29T09:41:13;21.70;99.90
8910;DHT22;4490;49.072;8.804;2023-07-29T09:43:40;21.70;99.90
8910;DHT22;4490;49.072;8.804;2023-07-29T09:46:06;21.70;99.90
8910;DHT22;4490;49.072;8.804;2023-07-29T09:48:36;21.70;99.90
8910;DHT22;4490;49.072;8.804;2023-07-29T09:51:12;21.70;99.90
8910;DHT22;4490;49.072;8.804;2023-07-29T09:53:45;21.70;99.90
8910;DHT22;4490;49.072;8.804;2023-07-29T09:56:12;21.80;99.90
8910;DHT22;4490;49.072;8.804;2023-07-29T09:58:38;21.90;99.90
8910;DHT22;4490;49.072;8.804;2023-07-29T10:01:08;22.10;99.90
8910;DHT22;4490;49.072;8.804;2023-07-29T10:03:35;22.20;99.90
8910;DHT22;4490;49.072;8.804;2023-07-29T10:06:05;22.40;99.90
8910;DHT22;4490;49.072;8.804;2023-07-29T10:08:31;22.50;99.90
8910;DHT22;4490;49.072;8.804;2023-07-29T10:11:07;22.60;99.90
8910;DHT22;4490;49.072;8.804;2023-07-29T10:13:34;22.90;99.90
8910;DHT22;4490;49.072;8.804;2023-07-29T10:16:00;23.10;99.90
8910;DHT22;4490;49.072;8.804;2023-07-29T10:18:29;23.30;99.90
8910;DHT22;4490;49.072;8.804;2023-07-29T10:20:58;23.40;99.90
8910;DHT22;4490;49.072;8.804;2023-07-29T10:23:25;23.70;99.90
8910;DHT22;4490;49.072;8.804;2023-07-29T10:26:09;23.90;99.90
8910;DHT22;4490;49.072;8.804;2023-07-29T10:28:39;24.20;99.90
8910;DHT22;4490;49.072;8.804;2023-07-29T10:31:05;24.20;99.90
8910;DHT22;4490;49.072;8.804;2023-07-29T10:33:33;24.30;99.90
8910;DHT22;4490;49.072;8.804;2023-07-29T10:35:59;24.30;99.90
8910;DHT22;4490;49.072;8.804;2023-07-29T10:38:25;24.40;99.90
8910;DHT22;4490;49.072;8.804;2023-07-29T10:40:57;24.50;99.90
8910;DHT22;4490;49.072;8.804;2023-07-29T10:43:36;24.70;99.90
8910;DHT22;4490;49.072;8.804;2023-07-29T10:48:53;24.90;99.90
8910;DHT22;4490;49.072;8.804;2023-07-29T10:51:26;24.80;99.90
8910;DHT22;4490;49.072;8.804;2023-07-29T10:54:03;24.70;99.90
8910;DHT22;4490;49.072;8.804;2023-07-29T10:56:36;24.60;99.90
8910;DHT22;4490;49.072;8.804;2023-07-29T11:01:58;24.60;99.90
8910;DHT22;4490;49.072;8.804;2023-07-29T11:04:28;24.80;99.90
8910;DHT22;4490;49.072;8.804;2023-07-29T11:12:51;25.60;99.90
8910;DHT22;4490;49.072;8.804;2023-07-29T11:15:25;25.80;99.90
8910;DHT22;4490;49.072;8.804;2023-07-29T11:17:55;26.00;99.90
8910;DHT22;4490;49.072;8.804;2023-07-29T11:20:25;26.20;99.90
8910;DHT22;4490;49.072;8.804;2023-07-29T11:22:53;26.30;99.90
8910;DHT22;4490;49.072;8.804;2023-07-29T11:25:20;26.40;99.90
8910;DHT22;4490;49.072;8.804;2023-07-29T11:27:46;26.50;99.90
8910;DHT22;4490;49.072;8.804;2023-07-29T11:30:13;26.70;99.90
8910;DHT22;4490;49.072;8.804;2023-07-29T11:32:40;26.80;98.90
8910;DHT22;4490;49.072;8.804;2023-07-29T11:35:14;26.90;98.80
8910;DHT22;4490;49.072;8.804;2023-07-29T11:37:42;27.10;99.20
8910;DHT22;4490;49.072;8.804;2023-07-29T11:40:08;27.20;98.40
8910;DHT22;4490;49.072;8.804;2023-07-29T11:42:36;27.30;95.50
8910;DHT22;4490;49.072;8.804;2023-07-29T11:45:03;27.40;92.50
8910;DHT22;4490;49.072;8.804;2023-07-29T11:47:32;27.40;90.90
8910;DHT22;4490;49.072;8.804;2023-07-29T11:50:01;27.50;89.60
8910;DHT22;4490;49.072;8.804;2023-07-29T11:52:28;27.60;90.40
8910;DHT22;4490;49.072;8.804;2023-07-29T11:54:54;27.60;89.20
8910;DHT22;4490;49.072;8.804;2023-07-29T11:57:20;27.70;86.70
8910;DHT22;4490;49.072;8.804;2023-07-29T11:59:46;27.80;86.50
8910;DHT22;4490;49.072;8.804;2023-07-29T12:02:20;27.90;85.60
8910;DHT22;4490;49.072;8.804;2023-07-29T12:04:47;28.10;85.50
8910;DHT22;4490;49.072;8.804;2023-07-29T12:07:14;28.30;85.80
8910;DHT22;4490;49.072;8.804;2023-07-29T12:09:41;28.50;84.40
8910;DHT22;4490;49.072;8.804;2023-07-29T12:12:08;28.60;83.40
8910;DHT22;4490;49.072;8.804;2023-07-29T12:14:34;28.70;82.20
8910;DHT22;4490;49.072;8.804;2023-07-29T12:17:04;28.60;81.50
8910;DHT22;4490;49.072;8.804;2023-07-29T12:19:37;28.50;78.90
8910;DHT22;4490;49.072;8.804;2023-07-29T12:22:04;28.40;78.70
8910;DHT22;4490;49.072;8.804;2023-07-29T12:24:35;28.20;80.00
8910;DHT22;4490;49.072;8.804;2023-07-29T12:27:01;28.10;80.50
8910;DHT22;4490;49.072;8.804;2023-07-29T12:29:28;28.10;80.80
8910;DHT22;4490;49.072;8.804;2023-07-29T12:32:03;28.00;80.50
8910;DHT22;4490;49.072;8.804;2023-07-29T12:34:30;28.00;81.30
8910;DHT22;4490;49.072;8.804;2023-07-29T12:36:58;28.00;81.80
8910;DHT22;4490;49.072;8.804;2023-07-29T12:39:28;28.10;83.00
8910;DHT22;4490;49.072;8.804;2023-07-29T12:41:56;28.20;80.90
8910;DHT22;4490;49.072;8.804;2023-07-29T12:44:24;28.20;79.20
8910;DHT22;4490;49.072;8.804;2023-07-29T12:46:50;28.30;79.40
8910;DHT22;4490;49.072;8.804;2023-07-29T12:49:16;28.40;79.30
8910;DHT22;4490;49.072;8.804;2023-07-29T12:51:42;28.60;78.80
8910;DHT22;4490;49.072;8.804;2023-07-29T12:54:08;28.80;77.30
8910;DHT22;4490;49.072;8.804;2023-07-29T12:56:35;28.90;76.80
8910;DHT22;4490;49.072;8.804;2023-07-29T12:59:01;28.90;75.50
8910;DHT22;4490;49.072;8.804;2023-07-29T13:01:28;28.90;75.30
8910;DHT22;4490;49.072;8.804;2023-07-29T13:03:54;28.80;75.20
8910;DHT22;4490;49.072;8.804;2023-07-29T13:06:20;28.80;75.40
8910;DHT22;4490;49.072;8.804;2023-07-29T13:08:47;28.60;74.40
8910;DHT22;4490;49.072;8.804;2023-07-29T13:11:14;28.50;75.10
8910;DHT22;4490;49.072;8.804;2023-07-29T13:13:40;28.40;74.70
8910;DHT22;4490;49.072;8.804;2023-07-29T13:16:05;28.40;74.70
8910;DHT22;4490;49.072;8.804;2023-07-29T13:18:32;28.30;74.80
8910;DHT22;4490;49.072;8.804;2023-07-29T13:20:57;28.20;73.80
8910;DHT22;4490;49.072;8.804;2023-07-29T13:23:23;28.10;73.10
8910;DHT22;4490;49.072;8.804;2023-07-29T13:25:49;28.00;72.30
8910;DHT22;4490;49.072;8.804;2023-07-29T13:28:15;27.90;72.70
8910;DHT22;4490;49.072;8.804;2023-07-29T13:30:41;27.90;72.70
8910;DHT22;4490;49.072;8.804;2023-07-29T13:33:07;27.90;73.70
8910;DHT22;4490;49.072;8.804;2023-07-29T13:35:33;28.00;72.90
8910;DHT22;4490;49.072;8.804;2023-07-29T13:37:59;28.20;73.00
8910;DHT22;4490;49.072;8.804;2023-07-29T13:40:25;28.30;72.70
8910;DHT22;4490;49.072;8.804;2023-07-29T13:42:51;28.40;72.50
8910;DHT22;4490;49.072;8.804;2023-07-29T13:45:17;28.50;72.50
8910;DHT22;4490;49.072;8.804;2023-07-29T13:47:43;28.60;72.80
8910;DHT22;4490;49.072;8.804;2023-07-29T13:50:09;28.60;72.80
8910;DHT22;4490;49.072;8.804;2023-07-29T13:52:36;28.60;72.40
8910;DHT22;4490;49.072;8.804;2023-07-29T13:55:02;28.70;71.30
8910;DHT22;4490;49.072;8.804;2023-07-29T13:57:28;28.60;71.80
8910;DHT22;4490;49.072;8.804;2023-07-29T13:59:53;28.60;72.20
8910;DHT22;4490;49.072;8.804;2023-07-29T14:02:19;28.60;72.20
8910;DHT22;4490;49.072;8.804;2023-07-29T14:04:44;28.70;73.60
8910;DHT22;4490;49.072;8.804;2023-07-29T14:07:10;28.80;73.30
8910;DHT22;4490;49.072;8.804;2023-07-29T14:09:36;28.90;73.30
8910;DHT22;4490;49.072;8.804;2023-07-29T14:12:02;29.00;72.00
8910;DHT22;4490;49.072;8.804;2023-07-29T14:14:28;29.10;71.60
8910;DHT22;4490;49.072;8.804;2023-07-29T14:16:55;29.10;70.70
8910;DHT22;4490;49.072;8.804;2023-07-29T14:19:20;29.20;70.90
8910;DHT22;4490;49.072;8.804;2023-07-29T14:21:46;29.10;69.80
8910;DHT22;4490;49.072;8.804;2023-07-29T14:24:11;29.10;69.20
8910;DHT22;4490;49.072;8.804;2023-07-29T14:26:37;29.20;69.50
8910;DHT22;4490;49.072;8.804;2023-07-29T14:29:03;29.20;69.90
8910;DHT22;4490;49.072;8.804;2023-07-29T14:31:28;29.10;69.00
8910;DHT22;4490;49.072;8.804;2023-07-29T14:33:54;29.10;68.70
8910;DHT22;4490;49.072;8.804;2023-07-29T14:36:19;29.10;68.40
8910;DHT22;4490;49.072;8.804;2023-07-29T14:38:45;29.10;68.40
8910;DHT22;4490;49.072;8.804;2023-07-29T14:41:11;29.10;68.80
8910;DHT22;4490;49.072;8.804;2023-07-29T14:43:36;29.10;69.00
8910;DHT22;4490;49.072;8.804;2023-07-29T14:46:02;29.10;68.60
8910;DHT22;4490;49.072;8.804;2023-07-29T14:48:28;29.00;68.70
8910;DHT22;4490;49.072;8.804;2023-07-29T14:50:54;28.90;68.70
8910;DHT22;4490;49.072;8.804;2023-07-29T14:53:19;29.00;69.30
8910;DHT22;4490;49.072;8.804;2023-07-29T14:55:45;29.00;68.90
8910;DHT22;4490;49.072;8.804;2023-07-29T14:58:11;29.00;68.50
8910;DHT22;4490;49.072;8.804;2023-07-29T15:00:37;29.10;68.00
8910;DHT22;4490;49.072;8.804;2023-07-29T15:03:03;29.10;67.70
8910;DHT22;4490;49.072;8.804;2023-07-29T15:05:28;29.10;68.20
8910;DHT22;4490;49.072;8.804;2023-07-29T15:07:54;29.00;67.90
8910;DHT22;4490;49.072;8.804;2023-07-29T15:10:20;29.00;68.00
8910;DHT22;4490;49.072;8.804;2023-07-29T15:12:46;28.90;67.60
8910;DHT22;4490;49.072;8.804;2023-07-29T15:15:12;28.90;68.20
8910;DHT22;4490;49.072;8.804;2023-07-29T15:17:38;28.70;67.30
8910;DHT22;4490;49.072;8.804;2023-07-29T15:20:04;28.60;67.70
8910;DHT22;4490;49.072;8.804;2023-07-29T15:22:30;28.60;68.30
8910;DHT22;4490;49.072;8.804;2023-07-29T15:24:59;28.60;68.40
8910;DHT22;4490;49.072;8.804;2023-07-29T15:27:29;28.50;67.90
8910;DHT22;4490;49.072;8.804;2023-07-29T15:29:55;28.40;68.40
8910;DHT22;4490;49.072;8.804;2023-07-29T15:32:21;28.30;69.20
8910;DHT22;4490;49.072;8.804;2023-07-29T15:34:47;28.20;69.60
8910;DHT22;4490;49.072;8.804;2023-07-29T15:37:13;28.10;69.40
8910;DHT22;4490;49.072;8.804;2023-07-29T15:39:39;28.00;69.30
8910;DHT22;4490;49.072;8.804;2023-07-29T15:42:04;27.90;69.40
8910;DHT22;4490;49.072;8.804;2023-07-29T15:44:30;27.80;69.30
8910;DHT22;4490;49.072;8.804;2023-07-29T15:46:56;27.70;69.70
8910;DHT22;4490;49.072;8.804;2023-07-29T15:49:22;27.60;70.10
8910;DHT22;4490;49.072;8.804;2023-07-29T15:51:48;27.60;69.90
8910;DHT22;4490;49.072;8.804;2023-07-29T15:54:14;27.60;69.70
8910;DHT22;4490;49.072;8.804;2023-07-29T15:56:40;27.50;70.20
8910;DHT22;4490;49.072;8.804;2023-07-29T15:59:07;27.40;69.90
8910;DHT22;4490;49.072;8.804;2023-07-29T16:01:32;27.40;70.50
8910;DHT22;4490;49.072;8.804;2023-07-29T16:03:58;27.40;70.80
8910;DHT22;4490;49.072;8.804;2023-07-29T16:06:24;27.40;70.90
8910;DHT22;4490;49.072;8.804;2023-07-29T16:08:50;27.40;70.90
8910;DHT22;4490;49.072;8.804;2023-07-29T16:11:16;27.30;70.60